sensor_id;sensor_type;location;lat;lon;timestamp;pressure;altitude;pressure_sealevel;temperature;humidity
41260;BME280;26993;48.958;9.330;2022-08-19T00:02:18;97946.69;;;20.99;76.20
41260;BME280;26993;48.958;9.330;2022-08-19T00:05:05;97951.47;;;20.91;76.20
41260;BME280;26993;48.958;9.330;2022-08-19T00:07:52;97949.56;;;20.95;76.57
41260;BME280;26993;48.958;9.330;2022-08-19T00:10:39;97958.47;;;20.90;76.83
41260;BME280;26993;48.958;9.330;2022-08-19T00:13:25;97958.88;;;20.83;76.97
41260;BME280;26993;48.958;9.330;2022-08-19T00:16:14;97959.81;;;20.82;77.10
41260;BME280;26993;48.958;9.330;2022-08-19T00:19:02;97951.63;;;20.88;77.00
41260;BME280;26993;48.958;9.330;2022-08-19T00:21:50;97961.41;;;20.84;77.06
41260;BME280;26993;48.958;9.330;2022-08-19T00:24:37;97959.88;;;20.80;77.32
41260;BME280;26993;48.958;9.330;2022-08-19T00:27:23;97971.50;;;20.74;77.41
41260;BME280;26993;48.958;9.330;2022-08-19T00:30:11;97960.72;;;20.81;77.52
41260;BME280;26993;48.958;9.330;2022-08-19T00:32:58;97959.66;;;20.85;77.22
41260;BME280;26993;48.958;9.330;2022-08-19T00:35:46;97957.09;;;20.83;77.28
41260;BME280;26993;48.958;9.330;2022-08-19T00:38:33;97962.28;;;20.85;77.23
41260;BME280;26993;48.958;9.330;2022-08-19T00:41:23;97954.47;;;20.83;77.22
41260;BME280;26993;48.958;9.330;2022-08-19T00:44:12;97942.25;;;20.84;77.14
41260;BME280;26993;48.958;9.330;2022-08-19T00:46:59;97933.72;;;20.80;77.39
41260;BME280;26993;48.958;9.330;2022-08-19T00:49:48;97930.22;;;20.80;77.35
41260;BME280;26993;48.958;9.330;2022-08-19T00:52:40;97938.47;;;20.72;77.64
41260;BME280;26993;48.958;9.330;2022-08-19T00:55:31;97950.16;;;20.47;78.50
41260;BME280;26993;48.958;9.330;2022-08-19T00:58:20;97950.72;;;20.54;78.22
41260;BME280;26993;48.958;9.330;2022-08-19T01:01:08;97949.31;;;20.64;77.96
41260;BME280;26993;48.958;9.330;2022-08-19T01:03:55;97941.94;;;20.55;78.30
41260;BME280;26993;48.958;9.330;2022-08-19T01:06:42;97953.84;;;20.60;78.20
41260;BME280;26993;48.958;9.330;2022-08-19T01:09:30;97957.94;;;20.66;77.77
41260;BME280;26993;48.958;9.330;2022-08-19T01:12:18;97960.13;;;20.75;77.42
41260;BME280;26993;48.958;9.330;2022-08-19T01:15:06;97958.19;;;20.79;77.42
41260;BME280;26993;48.958;9.330;2022-08-19T01:17:55;97960.25;;;20.72;77.71
41260;BME280;26993;48.958;9.330;2022-08-19T01:20:43;97946.72;;;20.82;77.26
41260;BME280;26993;48.958;9.330;2022-08-19T01:23:31;97949.56;;;20.77;77.53
41260;BME280;26993;48.958;9.330;2022-08-19T01:26:28;97954.88;;;20.75;77.61
41260;BME280;26993;48.958;9.330;2022-08-19T01:29:15;97948.03;;;20.73;77.67
41260;BME280;26993;48.958;9.330;2022-08-19T01:32:02;97950.78;;;20.70;77.97
41260;BME280;26993;48.958;9.330;2022-08-19T01:34:49;97946.38;;;20.70;77.92
41260;BME280;26993;48.958;9.330;2022-08-19T01:37:47;97946.63;;;20.66;77.90
41260;BME280;26993;48.958;9.330;2022-08-19T01:40:39;97938.78;;;20.66;78.15
41260;BME280;26993;48.958;9.330;2022-08-19T01:43:27;97932.16;;;20.58;78.44
41260;BME280;26993;48.958;9.330;2022-08-19T01:46:14;97936.03;;;20.51;78.63
41260;BME280;26993;48.958;9.330;2022-08-19T01:49:01;97940.72;;;20.44;78.75
41260;BME280;26993;48.958;9.330;2022-08-19T01:51:49;97942.53;;;20.42;79.08
41260;BME280;26993;48.958;9.330;2022-08-19T01:54:35;97941.94;;;20.37;79.43
41260;BME280;26993;48.958;9.330;2022-08-19T01:57:24;97940.94;;;20.40;79.47
41260;BME280;26993;48.958;9.330;2022-08-19T02:00:14;97930.47;;;20.40;79.47
41260;BME280;26993;48.958;9.330;2022-08-19T02:03:01;97939.22;;;20.39;79.49
41260;BME280;26993;48.958;9.330;2022-08-19T02:05:52;97932.31;;;20.38;79.59
41260;BME280;26993;48.958;9.330;2022-08-19T02:08:40;97940.25;;;20.36;79.71
41260;BME280;26993;48.958;9.330;2022-08-19T02:11:29;97935.69;;;20.40;79.65
41260;BME280;26993;48.958;9.330;2022-08-19T02:14:17;97947.25;;;20.36;80.00
41260;BME280;26993;48.958;9.330;2022-08-19T02:17:04;97946.47;;;20.34;79.96
41260;BME280;26993;48.958;9.330;2022-08-19T02:19:51;97945.47;;;20.36;80.15
41260;BME280;26993;48.958;9.330;2022-08-19T02:22:38;97943.84;;;20.34;79.95
41260;BME280;26993;48.958;9.330;2022-08-19T02:25:26;97949.88;;;20.36;80.03
41260;BME280;26993;48.958;9.330;2022-08-19T02:28:14;97951.84;;;20.31;80.42
41260;BME280;26993;48.958;9.330;2022-08-19T02:31:02;97953.53;;;20.32;80.54
41260;BME280;26993;48.958;9.330;2022-08-19T02:33:49;97956.16;;;20.32;80.43
41260;BME280;26993;48.958;9.330;2022-08-19T02:36:37;97965.00;;;20.29;80.45
41260;BME280;26993;48.958;9.330;2022-08-19T02:39:24;97966.16;;;20.23;80.89
41260;BME280;26993;48.958;9.330;2022-08-19T02:42:10;97972.59;;;20.16;81.04
41260;BME280;26993;48.958;9.330;2022-08-19T02:44:57;97960.88;;;20.25;81.02
41260;BME280;26993;48.958;9.330;2022-08-19T02:47:46;97957.16;;;20.29;80.87
41260;BME280;26993;48.958;9.330;2022-08-19T02:50:33;97956.38;;;20.27;80.82
41260;BME280;26993;48.958;9.330;2022-08-19T02:53:19;97945.78;;;20.30;81.09
41260;BME280;26993;48.958;9.330;2022-08-19T02:56:07;97945.22;;;20.23;81.08
41260;BME280;26993;48.958;9.330;2022-08-19T02:58:54;97948.63;;;20.25;81.32
41260;BME280;26993;48.958;9.330;2022-08-19T03:01:42;97945.00;;;20.28;81.08
41260;BME280;26993;48.958;9.330;2022-08-19T03:04:30;97942.47;;;20.26;80.98
41260;BME280;26993;48.958;9.330;2022-08-19T03:07:17;97934.84;;;20.22;81.54
41260;BME280;26993;48.958;9.330;2022-08-19T03:10:05;97929.91;;;20.16;82.11
41260;BME280;26993;48.958;9.330;2022-08-19T03:12:52;97934.53;;;20.10;82.10
41260;BME280;26993;48.958;9.330;2022-08-19T03:15:40;97938.59;;;19.99;82.35
41260;BME280;26993;48.958;9.330;2022-08-19T03:18:27;97949.66;;;20.04;82.53
41260;BME280;26993;48.958;9.330;2022-08-19T03:21:17;97949.19;;;19.76;83.90
41260;BME280;26993;48.958;9.330;2022-08-19T03:24:06;97953.81;;;19.90;83.24
41260;BME280;26993;48.958;9.330;2022-08-19T03:26:54;97959.34;;;20.02;82.69
41260;BME280;26993;48.958;9.330;2022-08-19T03:29:43;97956.41;;;19.90;83.11
41260;BME280;26993;48.958;9.330;2022-08-19T03:32:30;97964.03;;;19.95;83.02
41260;BME280;26993;48.958;9.330;2022-08-19T03:35:17;97970.53;;;19.86;83.37
41260;BME280;26993;48.958;9.330;2022-08-19T03:38:06;97973.84;;;19.90;83.40
41260;BME280;26993;48.958;9.330;2022-08-19T03:40:53;97971.44;;;19.85;83.52
41260;BME280;26993;48.958;9.330;2022-08-19T03:43:40;97964.94;;;19.75;84.06
41260;BME280;26993;48.958;9.330;2022-08-19T03:46:29;97967.16;;;19.84;83.75
41260;BME280;26993;48.958;9.330;2022-08-19T03:49:18;97973.50;;;19.78;84.00
41260;BME280;26993;48.958;9.330;2022-08-19T03:52:05;97963.47;;;19.88;83.97
41260;BME280;26993;48.958;9.330;2022-08-19T03:54:54;97958.50;;;20.01;83.04
41260;BME280;26993;48.958;9.330;2022-08-19T03:57:41;97957.66;;;20.01;83.07
41260;BME280;26993;48.958;9.330;2022-08-19T04:00:28;97957.16;;;19.92;83.62
41260;BME280;26993;48.958;9.330;2022-08-19T04:03:14;97965.78;;;19.94;83.33
41260;BME280;26993;48.958;9.330;2022-08-19T04:06:09;97966.88;;;19.90;83.56
41260;BME280;26993;48.958;9.330;2022-08-19T04:08:59;97969.63;;;19.87;83.95
41260;BME280;26993;48.958;9.330;2022-08-19T04:11:49;97961.63;;;19.90;83.87
41260;BME280;26993;48.958;9.330;2022-08-19T04:14:39;97966.25;;;19.84;83.90
41260;BME280;26993;48.958;9.330;2022-08-19T04:17:26;97960.84;;;19.88;83.80
41260;BME280;26993;48.958;9.330;2022-08-19T04:20:12;97967.91;;;19.86;84.03
41260;BME280;26993;48.958;9.330;2022-08-19T04:22:59;97961.97;;;19.82;84.11
41260;BME280;26993;48.958;9.330;2022-08-19T04:25:46;97964.16;;;19.73;84.79
41260;BME280;26993;48.958;9.330;2022-08-19T04:28:34;97965.72;;;19.77;84.76
41260;BME280;26993;48.958;9.330;2022-08-19T04:31:25;97967.34;;;19.79;84.55
41260;BME280;26993;48.958;9.330;2022-08-19T04:34:15;97963.94;;;19.77;84.53
41260;BME280;26993;48.958;9.330;2022-08-19T04:37:06;97965.94;;;19.72;84.87
41260;BME280;26993;48.958;9.330;2022-08-19T04:39:56;97965.78;;;19.56;85.61
41260;BME280;26993;48.958;9.330;2022-08-19T04:43:00;97958.22;;;19.69;85.06
41260;BME280;26993;48.958;9.330;2022-08-19T04:45:49;97960.84;;;19.69;85.00
41260;BME280;26993;48.958;9.330;2022-08-19T04:48:37;97963.13;;;19.77;84.75
41260;BME280;26993;48.958;9.330;2022-08-19T04:51:25;97969.09;;;19.79;84.43
41260;BME280;26993;48.958;9.330;2022-08-19T04:54:11;97964.16;;;19.73;84.64
41260;BME280;26993;48.958;9.330;2022-08-19T04:56:58;97966.91;;;19.70;84.70
41260;BME280;26993;48.958;9.330;2022-08-19T04:59:45;97968.97;;;19.63;85.06
41260;BME280;26993;48.958;9.330;2022-08-19T05:02:33;97976.91;;;19.61;85.27
41260;BME280;26993;48.958;9.330;2022-08-19T05:05:20;97968.06;;;19.64;85.06
41260;BME280;26993;48.958;9.330;2022-08-19T05:08:06;97971.91;;;19.55;85.70
41260;BME280;26993;48.958;9.330;2022-08-19T05:10:53;97976.09;;;19.59;85.52
41260;BME280;26993;48.958;9.330;2022-08-19T05:13:40;97982.66;;;19.49;85.71
41260;BME280;26993;48.958;9.330;2022-08-19T05:16:28;97991.78;;;19.40;86.37
41260;BME280;26993;48.958;9.330;2022-08-19T05:19:16;97997.00;;;19.40;87.03
41260;BME280;26993;48.958;9.330;2022-08-19T05:22:20;98005.94;;;19.34;87.11
41260;BME280;26993;48.958;9.330;2022-08-19T05:25:20;98011.09;;;19.36;87.66
41260;BME280;26993;48.958;9.330;2022-08-19T05:28:07;98019.19;;;19.50;86.81
41260;BME280;26993;48.958;9.330;2022-08-19T05:30:54;98030.59;;;19.48;87.08
41260;BME280;26993;48.958;9.330;2022-08-19T05:33:41;98031.53;;;19.47;87.27
41260;BME280;26993;48.958;9.330;2022-08-19T05:36:34;98041.19;;;19.45;87.21
41260;BME280;26993;48.958;9.330;2022-08-19T05:39:21;98044.53;;;19.48;86.99
41260;BME280;26993;48.958;9.330;2022-08-19T05:42:09;98055.59;;;19.54;86.75
41260;BME280;26993;48.958;9.330;2022-08-19T05:44:56;98050.53;;;19.50;86.99
41260;BME280;26993;48.958;9.330;2022-08-19T05:47:43;98061.63;;;19.56;86.96
41260;BME280;26993;48.958;9.330;2022-08-19T05:50:30;98062.13;;;19.64;86.46
41260;BME280;26993;48.958;9.330;2022-08-19T05:53:18;98069.31;;;19.59;86.78
41260;BME280;26993;48.958;9.330;2022-08-19T05:56:06;98068.81;;;19.70;86.02
41260;BME280;26993;48.958;9.330;2022-08-19T05:58:53;98075.31;;;19.61;86.21
41260;BME280;26993;48.958;9.330;2022-08-19T06:01:44;98075.81;;;19.69;85.59
41260;BME280;26993;48.958;9.330;2022-08-19T06:04:31;98072.09;;;19.75;85.20
41260;BME280;26993;48.958;9.330;2022-08-19T06:07:18;98071.16;;;19.96;84.23
41260;BME280;26993;48.958;9.330;2022-08-19T06:10:08;98077.28;;;19.95;84.16
41260;BME280;26993;48.958;9.330;2022-08-19T06:12:55;98075.94;;;19.87;84.60
41260;BME280;26993;48.958;9.330;2022-08-19T06:15:42;98070.81;;;19.84;84.40
41260;BME280;26993;48.958;9.330;2022-08-19T06:18:31;98076.06;;;19.84;84.04
41260;BME280;26993;48.958;9.330;2022-08-19T06:21:19;98077.03;;;19.81;84.57
41260;BME280;26993;48.958;9.330;2022-08-19T06:24:07;98065.75;;;19.80;84.83
41260;BME280;26993;48.958;9.330;2022-08-19T06:26:57;98066.66;;;19.79;84.79
41260;BME280;26993;48.958;9.330;2022-08-19T06:29:44;98071.81;;;19.81;84.94
41260;BME280;26993;48.958;9.330;2022-08-19T06:32:32;98067.38;;;19.83;84.71
41260;BME280;26993;48.958;9.330;2022-08-19T06:35:19;98068.16;;;19.85;84.61
41260;BME280;26993;48.958;9.330;2022-08-19T06:38:05;98068.03;;;19.88;84.81
41260;BME280;26993;48.958;9.330;2022-08-19T06:41:00;98061.03;;;19.89;85.23
41260;BME280;26993;48.958;9.330;2022-08-19T06:43:48;98069.66;;;19.91;85.85
41260;BME280;26993;48.958;9.330;2022-08-19T06:46:35;98071.94;;;19.99;85.59
41260;BME280;26993;48.958;9.330;2022-08-19T06:49:23;98067.75;;;19.94;86.61
41260;BME280;26993;48.958;9.330;2022-08-19T06:52:11;98067.63;;;19.97;86.34
41260;BME280;26993;48.958;9.330;2022-08-19T06:54:59;98065.84;;;19.98;86.49
41260;BME280;26993;48.958;9.330;2022-08-19T06:57:46;98067.81;;;19.93;87.07
41260;BME280;26993;48.958;9.330;2022-08-19T07:00:34;98072.63;;;20.02;87.45
41260;BME280;26993;48.958;9.330;2022-08-19T07:03:21;98067.75;;;20.13;86.92
41260;BME280;26993;48.958;9.330;2022-08-19T07:06:10;98070.06;;;20.20;86.84
41260;BME280;26993;48.958;9.330;2022-08-19T07:08:58;98063.84;;;20.22;86.32
41260;BME280;26993;48.958;9.330;2022-08-19T07:11:46;98071.34;;;20.30;85.89
41260;BME280;26993;48.958;9.330;2022-08-19T07:14:34;98069.50;;;20.32;86.01
41260;BME280;26993;48.958;9.330;2022-08-19T07:17:23;98073.75;;;20.35;85.69
41260;BME280;26993;48.958;9.330;2022-08-19T07:20:11;98079.09;;;20.32;85.18
41260;BME280;26993;48.958;9.330;2022-08-19T07:22:58;98085.72;;;20.39;85.05
41260;BME280;26993;48.958;9.330;2022-08-19T07:25:44;98092.66;;;20.40;84.13
41260;BME280;26993;48.958;9.330;2022-08-19T07:28:31;98090.97;;;20.39;84.02
41260;BME280;26993;48.958;9.330;2022-08-19T07:31:20;98096.50;;;20.33;83.76
41260;BME280;26993;48.958;9.330;2022-08-19T07:34:10;98091.78;;;20.22;83.89
41260;BME280;26993;48.958;9.330;2022-08-19T07:36:58;98089.56;;;20.12;84.84
41260;BME280;26993;48.958;9.330;2022-08-19T07:39:45;98083.22;;;20.18;84.57
41260;BME280;26993;48.958;9.330;2022-08-19T07:42:31;98093.97;;;20.12;84.92
41260;BME280;26993;48.958;9.330;2022-08-19T07:45:18;98098.22;;;20.15;85.36
41260;BME280;26993;48.958;9.330;2022-08-19T07:48:05;98091.16;;;20.17;84.77
41260;BME280;26993;48.958;9.330;2022-08-19T07:50:54;98092.84;;;20.18;85.10
41260;BME280;26993;48.958;9.330;2022-08-19T07:53:42;98098.84;;;20.20;84.80
41260;BME280;26993;48.958;9.330;2022-08-19T07:56:30;98096.09;;;20.23;84.69
41260;BME280;26993;48.958;9.330;2022-08-19T07:59:16;98091.91;;;20.19;85.33
41260;BME280;26993;48.958;9.330;2022-08-19T08:02:04;98089.94;;;20.24;84.78
41260;BME280;26993;48.958;9.330;2022-08-19T08:04:51;98091.78;;;20.22;85.01
41260;BME280;26993;48.958;9.330;2022-08-19T08:07:58;98096.28;;;20.18;84.87
41260;BME280;26993;48.958;9.330;2022-08-19T08:11:03;98090.69;;;20.26;84.67
41260;BME280;26993;48.958;9.330;2022-08-19T08:13:49;98102.09;;;20.25;84.84
41260;BME280;26993;48.958;9.330;2022-08-19T08:16:37;98107.78;;;20.33;84.32
41260;BME280;26993;48.958;9.330;2022-08-19T08:19:26;98110.50;;;20.32;84.60
41260;BME280;26993;48.958;9.330;2022-08-19T08:22:16;98111.56;;;20.27;84.53
41260;BME280;26993;48.958;9.330;2022-08-19T08:25:21;98109.94;;;20.25;84.65
41260;BME280;26993;48.958;9.330;2022-08-19T08:28:08;98111.63;;;20.26;84.78
41260;BME280;26993;48.958;9.330;2022-08-19T08:30:57;98113.19;;;20.30;84.48
41260;BME280;26993;48.958;9.330;2022-08-19T08:33:45;98110.50;;;20.32;84.76
41260;BME280;26993;48.958;9.330;2022-08-19T08:36:32;98108.78;;;20.31;85.03
41260;BME280;26993;48.958;9.330;2022-08-19T08:39:20;98109.78;;;20.47;84.29
41260;BME280;26993;48.958;9.330;2022-08-19T08:42:16;98109.84;;;20.45;84.22
41260;BME280;26993;48.958;9.330;2022-08-19T08:45:10;98113.25;;;20.48;84.32
41260;BME280;26993;48.958;9.330;2022-08-19T08:48:04;98108.06;;;20.46;84.57
41260;BME280;26993;48.958;9.330;2022-08-19T08:50:57;98106.63;;;20.58;83.94
41260;BME280;26993;48.958;9.330;2022-08-19T08:53:46;98097.78;;;20.60;83.90
41260;BME280;26993;48.958;9.330;2022-08-19T08:56:34;98103.94;;;20.59;84.26
41260;BME280;26993;48.958;9.330;2022-08-19T08:59:25;98096.44;;;20.71;83.93
41260;BME280;26993;48.958;9.330;2022-08-19T09:02:17;98092.72;;;20.76;84.08
41260;BME280;26993;48.958;9.330;2022-08-19T09:05:05;98090.78;;;20.80;83.89
41260;BME280;26993;48.958;9.330;2022-08-19T09:08:02;98092.41;;;20.83;83.60
41260;BME280;26993;48.958;9.330;2022-08-19T09:10:53;98095.09;;;20.81;83.92
41260;BME280;26993;48.958;9.330;2022-08-19T09:13:47;98093.88;;;20.88;83.22
41260;BME280;26993;48.958;9.330;2022-08-19T09:16:38;98095.72;;;20.86;83.37
41260;BME280;26993;48.958;9.330;2022-08-19T09:19:26;98098.31;;;20.86;83.93
41260;BME280;26993;48.958;9.330;2022-08-19T09:22:12;98100.09;;;21.03;83.16
41260;BME280;26993;48.958;9.330;2022-08-19T09:25:00;98103.41;;;21.07;82.78
41260;BME280;26993;48.958;9.330;2022-08-19T09:27:46;98102.09;;;21.16;83.24
41260;BME280;26993;48.958;9.330;2022-08-19T09:30:39;98103.72;;;21.18;82.60
41260;BME280;26993;48.958;9.330;2022-08-19T09:33:27;98100.09;;;21.21;82.58
41260;BME280;26993;48.958;9.330;2022-08-19T09:36:16;98104.66;;;21.17;82.72
41260;BME280;26993;48.958;9.330;2022-08-19T09:39:04;98108.97;;;21.18;82.84
41260;BME280;26993;48.958;9.330;2022-08-19T09:41:51;98102.19;;;21.14;82.88
41260;BME280;26993;48.958;9.330;2022-08-19T09:44:39;98105.66;;;21.15;83.41
41260;BME280;26993;48.958;9.330;2022-08-19T09:47:26;98105.34;;;21.21;83.31
41260;BME280;26993;48.958;9.330;2022-08-19T09:50:14;98105.94;;;21.26;83.24
41260;BME280;26993;48.958;9.330;2022-08-19T09:53:02;98098.47;;;21.36;82.71
41260;BME280;26993;48.958;9.330;2022-08-19T09:55:48;98105.31;;;21.38;82.77
41260;BME280;26993;48.958;9.330;2022-08-19T09:58:37;98115.31;;;21.48;82.19
41260;BME280;26993;48.958;9.330;2022-08-19T10:01:26;98116.00;;;21.51;82.37
41260;BME280;26993;48.958;9.330;2022-08-19T10:04:13;98119.50;;;21.52;82.53
41260;BME280;26993;48.958;9.330;2022-08-19T10:07:01;98107.72;;;21.61;82.20
41260;BME280;26993;48.958;9.330;2022-08-19T10:09:48;98109.84;;;21.70;81.84
41260;BME280;26993;48.958;9.330;2022-08-19T10:12:35;98105.59;;;21.67;81.90
41260;BME280;26993;48.958;9.330;2022-08-19T10:15:22;98110.09;;;21.65;81.59
41260;BME280;26993;48.958;9.330;2022-08-19T10:18:09;98104.63;;;21.70;81.85
41260;BME280;26993;48.958;9.330;2022-08-19T10:21:04;98107.94;;;21.74;81.15
41260;BME280;26993;48.958;9.330;2022-08-19T10:23:59;98098.03;;;21.79;81.31
41260;BME280;26993;48.958;9.330;2022-08-19T10:26:47;98100.06;;;21.90;81.20
41260;BME280;26993;48.958;9.330;2022-08-19T10:29:34;98096.19;;;21.97;80.74
41260;BME280;26993;48.958;9.330;2022-08-19T10:32:21;98085.59;;;21.98;80.26
41260;BME280;26993;48.958;9.330;2022-08-19T10:35:09;98089.78;;;22.02;80.52
41260;BME280;26993;48.958;9.330;2022-08-19T10:37:56;98086.47;;;22.15;79.74
41260;BME280;26993;48.958;9.330;2022-08-19T10:40:46;98089.88;;;22.17;79.98
41260;BME280;26993;48.958;9.330;2022-08-19T10:43:32;98092.00;;;22.26;79.29
41260;BME280;26993;48.958;9.330;2022-08-19T10:46:23;98086.84;;;22.41;79.37
41260;BME280;26993;48.958;9.330;2022-08-19T10:49:11;98088.94;;;22.50;79.07
41260;BME280;26993;48.958;9.330;2022-08-19T10:51:58;98084.97;;;22.43;78.51
41260;BME280;26993;48.958;9.330;2022-08-19T10:55:04;98083.53;;;22.53;77.64
41260;BME280;26993;48.958;9.330;2022-08-19T10:58:14;98087.19;;;22.50;77.39
41260;BME280;26993;48.958;9.330;2022-08-19T11:01:03;98089.09;;;22.31;76.50
41260;BME280;26993;48.958;9.330;2022-08-19T11:03:52;98088.59;;;22.24;76.22
41260;BME280;26993;48.958;9.330;2022-08-19T11:06:39;98088.34;;;22.29;76.88
41260;BME280;26993;48.958;9.330;2022-08-19T11:09:26;98084.22;;;22.41;75.85
41260;BME280;26993;48.958;9.330;2022-08-19T11:12:13;98072.09;;;22.54;75.40
41260;BME280;26993;48.958;9.330;2022-08-19T11:15:02;98078.59;;;22.63;75.41
41260;BME280;26993;48.958;9.330;2022-08-19T11:17:48;98074.00;;;22.66;75.01
41260;BME280;26993;48.958;9.330;2022-08-19T11:20:35;98078.84;;;22.74;76.02
41260;BME280;26993;48.958;9.330;2022-08-19T11:23:22;98075.00;;;22.80;75.49
41260;BME280;26993;48.958;9.330;2022-08-19T11:26:09;98073.53;;;22.90;73.54
41260;BME280;26993;48.958;9.330;2022-08-19T11:28:57;98067.13;;;23.10;72.24
41260;BME280;26993;48.958;9.330;2022-08-19T11:31:47;98062.19;;;23.20;71.69
41260;BME280;26993;48.958;9.330;2022-08-19T11:34:35;98060.22;;;23.24;72.28
41260;BME280;26993;48.958;9.330;2022-08-19T11:37:22;98067.94;;;23.41;70.34
41260;BME280;26993;48.958;9.330;2022-08-19T11:40:10;98069.72;;;23.41;69.95
41260;BME280;26993;48.958;9.330;2022-08-19T11:42:56;98071.00;;;23.19;70.69
41260;BME280;26993;48.958;9.330;2022-08-19T11:45:43;98070.25;;;23.32;71.12
41260;BME280;26993;48.958;9.330;2022-08-19T11:48:31;98065.22;;;23.43;69.81
41260;BME280;26993;48.958;9.330;2022-08-19T11:51:20;98071.88;;;23.34;71.02
41260;BME280;26993;48.958;9.330;2022-08-19T11:54:07;98069.81;;;23.54;70.13
41260;BME280;26993;48.958;9.330;2022-08-19T11:56:54;98072.72;;;23.64;69.52
41260;BME280;26993;48.958;9.330;2022-08-19T11:59:41;98074.19;;;23.39;69.47
41260;BME280;26993;48.958;9.330;2022-08-19T12:02:27;98070.19;;;23.48;69.61
41260;BME280;26993;48.958;9.330;2022-08-19T12:05:15;98071.31;;;23.58;68.86
41260;BME280;26993;48.958;9.330;2022-08-19T12:08:02;98072.16;;;23.58;69.62
41260;BME280;26993;48.958;9.330;2022-08-19T12:10:49;98071.78;;;23.65;69.64
41260;BME280;26993;48.958;9.330;2022-08-19T12:13:37;98068.38;;;23.77;68.58
41260;BME280;26993;48.958;9.330;2022-08-19T12:16:26;98065.97;;;23.59;69.10
41260;BME280;26993;48.958;9.330;2022-08-19T12:19:13;98069.81;;;23.68;68.11
41260;BME280;26993;48.958;9.330;2022-08-19T12:22:02;98060.13;;;23.69;69.06
41260;BME280;26993;48.958;9.330;2022-08-19T12:24:50;98067.66;;;23.75;68.06
41260;BME280;26993;48.958;9.330;2022-08-19T12:27:38;98062.84;;;23.82;68.19
41260;BME280;26993;48.958;9.330;2022-08-19T12:30:25;98067.66;;;23.89;67.41
41260;BME280;26993;48.958;9.330;2022-08-19T12:33:12;98073.19;;;23.70;68.62
41260;BME280;26993;48.958;9.330;2022-08-19T12:36:01;98076.09;;;23.80;68.27
41260;BME280;26993;48.958;9.330;2022-08-19T12:38:49;98074.97;;;23.99;66.75
41260;BME280;26993;48.958;9.330;2022-08-19T12:41:36;98075.81;;;23.85;68.90
41260;BME280;26993;48.958;9.330;2022-08-19T12:44:24;98080.06;;;24.02;68.01
41260;BME280;26993;48.958;9.330;2022-08-19T12:47:12;98076.56;;;23.72;67.24
41260;BME280;26993;48.958;9.330;2022-08-19T12:49:59;98074.13;;;24.13;66.36
41260;BME280;26993;48.958;9.330;2022-08-19T12:52:47;98075.91;;;24.12;66.65
41260;BME280;26993;48.958;9.330;2022-08-19T12:55:35;98068.44;;;24.19;65.72
41260;BME280;26993;48.958;9.330;2022-08-19T12:58:22;98072.03;;;24.18;65.55
41260;BME280;26993;48.958;9.330;2022-08-19T13:01:10;98081.72;;;24.17;66.30
41260;BME280;26993;48.958;9.330;2022-08-19T13:03:58;98080.53;;;24.36;65.11
41260;BME280;26993;48.958;9.330;2022-08-19T13:06:44;98081.19;;;24.39;65.19
41260;BME280;26993;48.958;9.330;2022-08-19T13:09:31;98078.94;;;24.33;65.57
41260;BME280;26993;48.958;9.330;2022-08-19T13:12:19;98081.97;;;24.27;65.56
41260;BME280;26993;48.958;9.330;2022-08-19T13:15:07;98079.81;;;24.34;64.57
41260;BME280;26993;48.958;9.330;2022-08-19T13:17:54;98083.28;;;24.34;65.04
41260;BME280;26993;48.958;9.330;2022-08-19T13:20:42;98084.75;;;24.11;66.24
41260;BME280;26993;48.958;9.330;2022-08-19T13:23:29;98085.22;;;24.03;67.38
41260;BME280;26993;48.958;9.330;2022-08-19T13:26:16;98088.88;;;24.01;70.04
41260;BME280;26993;48.958;9.330;2022-08-19T13:29:04;98084.16;;;23.91;68.38
41260;BME280;26993;48.958;9.330;2022-08-19T13:32:08;98089.91;;;23.84;68.63
41260;BME280;26993;48.958;9.330;2022-08-19T13:35:12;98091.31;;;23.89;69.30
41260;BME280;26993;48.958;9.330;2022-08-19T13:37:59;98085.09;;;23.90;69.43
41260;BME280;26993;48.958;9.330;2022-08-19T13:40:47;98091.59;;;23.85;70.23
41260;BME280;26993;48.958;9.330;2022-08-19T13:43:35;98094.91;;;23.59;72.99
41260;BME280;26993;48.958;9.330;2022-08-19T13:46:23;98089.69;;;23.29;80.52
41260;BME280;26993;48.958;9.330;2022-08-19T13:49:11;98089.47;;;22.87;84.61
41260;BME280;26993;48.958;9.330;2022-08-19T13:51:58;98090.44;;;22.70;85.11
41260;BME280;26993;48.958;9.330;2022-08-19T13:54:45;98093.16;;;22.69;84.10
41260;BME280;26993;48.958;9.330;2022-08-19T13:57:31;98082.41;;;22.57;85.98
41260;BME280;26993;48.958;9.330;2022-08-19T14:00:18;98090.13;;;22.60;85.97
41260;BME280;26993;48.958;9.330;2022-08-19T14:03:06;98085.19;;;22.38;86.74
41260;BME280;26993;48.958;9.330;2022-08-19T14:05:53;98087.81;;;22.22;87.63
41260;BME280;26993;48.958;9.330;2022-08-19T14:08:40;98092.75;;;22.12;88.09
41260;BME280;26993;48.958;9.330;2022-08-19T14:11:27;98092.75;;;22.12;88.71
41260;BME280;26993;48.958;9.330;2022-08-19T14:14:14;98100.06;;;21.90;90.83
41260;BME280;26993;48.958;9.330;2022-08-19T14:17:01;98092.00;;;21.77;92.92
41260;BME280;26993;48.958;9.330;2022-08-19T14:19:50;98099.78;;;21.78;92.26
41260;BME280;26993;48.958;9.330;2022-08-19T14:22:39;98104.69;;;21.51;93.40
41260;BME280;26993;48.958;9.330;2022-08-19T14:25:28;98105.69;;;21.48;94.62
41260;BME280;26993;48.958;9.330;2022-08-19T14:28:16;98094.38;;;21.30;97.29
41260;BME280;26993;48.958;9.330;2022-08-19T14:31:03;98099.19;;;21.22;100.00
41260;BME280;26993;48.958;9.330;2022-08-19T14:33:50;98093.16;;;21.20;97.12
41260;BME280;26993;48.958;9.330;2022-08-19T14:36:38;98098.78;;;21.12;98.71
41260;BME280;26993;48.958;9.330;2022-08-19T14:39:27;98090.53;;;21.02;100.00
41260;BME280;26993;48.958;9.330;2022-08-19T14:42:14;98094.16;;;21.00;98.90
41260;BME280;26993;48.958;9.330;2022-08-19T14:45:01;98090.28;;;20.72;100.00
41260;BME280;26993;48.958;9.330;2022-08-19T14:47:50;98086.97;;;20.68;100.00
41260;BME280;26993;48.958;9.330;2022-08-19T14:50:37;98091.84;;;20.76;100.00
41260;BME280;26993;48.958;9.330;2022-08-19T14:53:25;98091.63;;;20.81;99.64